createdAt,value
2023-02-24T00:02:05.407Z,30.60
2023-02-24T00:04:16.500Z,38.67
2023-02-24T00:06:24.329Z,31.45
2023-02-24T00:08:32.292Z,32.17
2023-02-24T00:10:40.513Z,32.95
2023-02-24T00:12:49.469Z,30.77
2023-02-24T00:14:57.433Z,31.05
2023-02-24T00:17:09.180Z,28.90
2023-02-24T00:19:19.854Z,32.08
2023-02-24T00:21:28.595Z,32.63
2023-02-24T00:23:36.466Z,29.92
2023-02-24T00:25:44.300Z,25.42
2023-02-24T00:27:52.091Z,27.38
2023-02-24T00:30:01.911Z,30.65
2023-02-24T00:32:14.131Z,30.88
2023-02-24T00:34:22.261Z,29.95
2023-02-24T00:36:33.886Z,26.70
2023-02-24T00:38:45.201Z,28.77
2023-02-24T00:40:53.006Z,27.80
2023-02-24T00:43:01.106Z,27.83
2023-02-24T00:45:12.260Z,32.70
2023-02-24T00:47:23.429Z,32.38
2023-02-24T00:49:32.479Z,27.15
2023-02-24T00:51:42.859Z,27.38
2023-02-24T00:53:50.758Z,32.13
2023-02-24T00:56:02.535Z,29.77
2023-02-24T00:58:10.490Z,29.73
2023-02-24T01:00:20.336Z,27.67
2023-02-24T01:02:30.887Z,28.33
2023-02-24T01:04:40.032Z,28.73
2023-02-24T01:06:49.753Z,27.77
2023-02-24T01:08:58.865Z,31.38
2023-02-24T01:11:22.467Z,32.10
2023-02-24T01:13:31.111Z,32.75
2023-02-24T01:15:39.202Z,31.65
2023-02-24T01:17:49.789Z,32.28
2023-02-24T01:20:00.468Z,35.67
2023-02-24T01:22:11.245Z,30.27
2023-02-24T01:24:20.442Z,38.03
2023-02-24T01:26:29.172Z,28.02
2023-02-24T01:28:37.678Z,28.90
2023-02-24T01:30:45.833Z,34.30
2023-02-24T01:32:57.576Z,32.47
2023-02-24T01:35:06.559Z,38.30
2023-02-24T01:37:16.732Z,33.97
2023-02-24T01:39:26.088Z,32.65
2023-02-24T01:41:33.695Z,36.08
2023-02-24T01:44:02.091Z,34.38
2023-02-24T01:46:13.999Z,33.38
2023-02-24T01:48:24.485Z,32.25
2023-02-24T01:50:33.128Z,38.08
2023-02-24T01:52:41.760Z,33.58
2023-02-24T01:54:52.583Z,32.42
2023-02-24T01:57:01.018Z,35.75
2023-02-24T01:59:09.402Z,34.97
2023-02-24T02:01:21.169Z,31.60
2023-02-24T02:03:35.522Z,33.00
2023-02-24T02:05:48.728Z,31.40
2023-02-24T02:07:57.498Z,29.63
2023-02-24T02:10:07.148Z,32.53
2023-02-24T02:12:15.819Z,31.08
2023-02-24T02:14:29.756Z,34.45
2023-02-24T02:17:02.757Z,38.05
2023-02-24T02:19:42.566Z,37.25
2023-02-24T02:22:09.939Z,38.13
2023-02-24T02:24:50.098Z,35.67
2023-02-24T02:27:21.265Z,43.30
2023-02-24T02:30:03.289Z,40.17
2023-02-24T02:32:33.245Z,38.00
2023-02-24T02:34:57.478Z,36.92
2023-02-24T02:37:12.109Z,39.42
2023-02-24T02:39:28.630Z,38.50
2023-02-24T02:41:45.343Z,36.53
2023-02-24T02:43:57.323Z,32.67
2023-02-24T02:46:14.915Z,33.92
2023-02-24T02:48:28.189Z,38.97
2023-02-24T02:50:47.303Z,38.17
2023-02-24T02:53:00.850Z,36.35
2023-02-24T02:55:14.315Z,36.53
2023-02-24T02:57:26.087Z,39.17
2023-02-24T02:59:37.977Z,34.67
2023-02-24T03:01:47.445Z,33.65
2023-02-24T03:03:58.990Z,43.35
2023-02-24T03:06:13.679Z,38.35
2023-02-24T03:08:29.683Z,34.38
2023-02-24T03:10:39.879Z,47.15
2023-02-24T03:12:52.479Z,41.22
2023-02-24T03:15:05.051Z,42.03
2023-02-24T03:17:21.625Z,41.35
2023-02-24T03:19:37.422Z,46.13
2023-02-24T03:21:53.237Z,42.30
2023-02-24T03:24:02.090Z,44.53
2023-02-24T03:26:19.077Z,41.97
2023-02-24T03:28:35.900Z,46.42
2023-02-24T03:30:49.804Z,42.40
2023-02-24T03:33:02.507Z,49.53
2023-02-24T03:35:19.770Z,42.58
2023-02-24T03:37:33.670Z,43.67
2023-02-24T03:39:41.819Z,47.95
2023-02-24T03:42:07.305Z,44.92
2023-02-24T03:44:16.560Z,40.97
2023-02-24T03:46:24.605Z,45.13
2023-02-24T03:48:33.074Z,43.10
2023-02-24T03:50:42.634Z,41.92
2023-02-24T03:53:33.840Z,45.67
2023-02-24T03:55:59.854Z,40.55
2023-02-24T03:58:21.489Z,40.67
2023-02-24T04:00:38.609Z,39.42
2023-02-24T04:02:49.858Z,40.38
2023-02-24T04:05:06.655Z,39.17
2023-02-24T04:07:37.536Z,41.58
2023-02-24T04:09:53.333Z,37.88
2023-02-24T04:12:09.551Z,39.58
2023-02-24T04:14:26.328Z,40.80
2023-02-24T04:16:40.968Z,34.03
2023-02-24T04:18:53.932Z,36.47
2023-02-24T04:21:06.144Z,37.55
2023-02-24T04:23:19.895Z,36.78
2023-02-24T04:25:31.354Z,36.63
2023-02-24T04:27:39.764Z,38.75
2023-02-24T04:29:58.110Z,36.85
2023-02-24T04:32:10.496Z,37.22
2023-02-24T04:34:20.392Z,38.40
2023-02-24T04:36:29.515Z,38.35
2023-02-24T04:38:38.445Z,38.67
2023-02-24T04:40:49.980Z,37.03
2023-02-24T04:42:58.113Z,34.35
2023-02-24T04:45:10.185Z,35.63
2023-02-24T04:47:18.006Z,38.42
2023-02-24T04:49:26.212Z,38.35
2023-02-24T04:51:34.144Z,43.67
2023-02-24T04:53:42.353Z,38.35
2023-02-24T04:55:53.503Z,39.05
2023-02-24T04:58:02.525Z,45.53
2023-02-24T05:00:20.995Z,44.17
2023-02-24T05:02:29.173Z,43.60
2023-02-24T05:04:39.104Z,43.38
2023-02-24T05:06:47.600Z,46.50
2023-02-24T05:08:55.374Z,49.05
2023-02-24T05:11:07.040Z,47.83
2023-02-24T05:13:17.198Z,51.95
2023-02-24T05:15:31.336Z,46.45
2023-02-24T05:17:39.920Z,51.05
2023-02-24T05:20:00.129Z,45.22
2023-02-24T05:22:10.620Z,45.08
2023-02-24T05:24:18.903Z,46.25
2023-02-24T05:26:32.159Z,44.03
2023-02-24T05:28:40.958Z,42.75
2023-02-24T05:30:48.956Z,46.50
2023-02-24T05:32:56.846Z,52.42
2023-02-24T05:35:05.604Z,45.08
2023-02-24T05:37:16.749Z,45.92
2023-02-24T05:39:26.724Z,56.00
2023-02-24T05:41:38.900Z,44.97
2023-02-24T05:43:48.539Z,44.40
2023-02-24T05:45:57.459Z,50.17
2023-02-24T05:48:06.001Z,43.03
2023-02-24T05:50:16.013Z,46.03
2023-02-24T05:52:24.208Z,44.35
2023-02-24T05:54:45.861Z,46.97
2023-02-24T05:56:57.158Z,46.78
2023-02-24T05:59:09.045Z,42.20
2023-02-24T06:01:19.448Z,49.72
2023-02-24T06:03:31.236Z,42.05
2023-02-24T06:05:39.864Z,45.00
2023-02-24T06:07:47.674Z,45.70
2023-02-24T06:09:57.486Z,45.15
2023-02-24T06:12:08.096Z,48.20
2023-02-24T06:14:16.190Z,47.33
2023-02-24T06:16:26.141Z,47.65
2023-02-24T06:18:34.112Z,44.63
2023-02-24T06:20:42.134Z,46.70
2023-02-24T06:22:54.310Z,45.55
2023-02-24T06:25:02.164Z,50.35
2023-02-24T06:27:18.021Z,44.95
2023-02-24T06:29:29.811Z,48.53
2023-02-24T06:31:37.838Z,47.88
2023-02-24T06:33:45.933Z,46.22
2023-02-24T06:35:53.877Z,47.17
2023-02-24T06:38:02.268Z,46.97
2023-02-24T06:40:16.050Z,46.15
2023-02-24T06:42:29.661Z,46.95
2023-02-24T06:44:39.208Z,53.78
2023-02-24T06:46:46.931Z,47.15
2023-02-24T06:48:54.887Z,51.33
2023-02-24T06:51:06.212Z,48.03
2023-02-24T06:53:17.053Z,50.08
2023-02-24T06:55:31.153Z,49.90
2023-02-24T06:57:44.062Z,55.55
2023-02-24T06:59:52.422Z,59.33
2023-02-24T07:02:03.534Z,51.05
2023-02-24T07:04:21.191Z,51.20
2023-02-24T07:06:29.611Z,52.95
2023-02-24T07:08:37.418Z,60.40
2023-02-24T07:10:45.219Z,56.90
2023-02-24T07:12:56.152Z,50.60
2023-02-24T07:15:05.333Z,51.72
2023-02-24T07:17:14.925Z,48.72
2023-02-24T07:19:25.179Z,50.33
2023-02-24T07:21:39.688Z,48.30
2023-02-24T07:23:49.923Z,46.20
2023-02-24T07:25:58.692Z,45.83
2023-02-24T07:28:09.117Z,50.15
2023-02-24T07:30:18.405Z,49.65
2023-02-24T07:32:26.301Z,48.22
2023-02-24T07:34:35.122Z,47.88
2023-02-24T07:36:49.442Z,53.28
2023-02-24T07:38:58.280Z,45.15
2023-02-24T07:41:06.961Z,51.13
2023-02-24T07:43:17.439Z,54.28
2023-02-24T07:45:27.792Z,47.40
2023-02-24T07:47:36.009Z,57.92
2023-02-24T07:49:43.917Z,55.88
2023-02-24T07:51:57.754Z,49.85
2023-02-24T07:54:05.901Z,52.97
2023-02-24T07:56:17.944Z,53.60
2023-02-24T07:58:28.628Z,54.60
2023-02-24T08:00:50.773Z,54.67
2023-02-24T08:03:00.681Z,59.45
2023-02-24T08:05:09.349Z,59.42
2023-02-24T08:07:17.176Z,60.00
2023-02-24T08:09:40.021Z,63.95
2023-02-24T08:11:52.448Z,62.70
2023-02-24T08:14:03.087Z,52.80
2023-02-24T08:16:12.370Z,54.13
2023-02-24T08:18:20.353Z,56.35
2023-02-24T08:20:30.215Z,55.10
2023-02-24T08:22:38.310Z,53.65
2023-02-24T08:24:50.218Z,46.70
2023-02-24T08:27:06.706Z,57.00
2023-02-24T08:29:20.595Z,49.50
2023-02-24T08:31:28.731Z,52.85
2023-02-24T08:33:37.478Z,53.00
2023-02-24T08:35:45.998Z,55.85
2023-02-24T08:38:10.546Z,51.63
2023-02-24T08:40:38.148Z,54.97
2023-02-24T08:42:46.695Z,59.92
2023-02-24T08:44:58.327Z,53.60
2023-02-24T08:47:07.768Z,54.70
2023-02-24T08:49:17.328Z,57.95
2023-02-24T08:51:29.185Z,57.05
2023-02-24T08:53:40.670Z,50.10
2023-02-24T08:55:51.921Z,54.35
2023-02-24T08:58:01.989Z,52.88
2023-02-24T09:00:28.272Z,61.33
2023-02-24T09:02:40.598Z,55.47
2023-02-24T09:04:49.749Z,57.92
2023-02-24T09:07:10.660Z,55.30
2023-02-24T09:09:21.441Z,55.25
2023-02-24T09:11:29.349Z,55.38
2023-02-24T09:13:44.007Z,54.42
2023-02-24T09:15:54.760Z,62.58
2023-02-24T09:18:07.699Z,46.05
2023-02-24T09:20:32.775Z,43.22
2023-02-24T09:22:52.786Z,44.53
2023-02-24T09:25:14.354Z,36.17
2023-02-24T09:27:29.552Z,34.28
2023-02-24T09:29:49.373Z,31.63
2023-02-24T09:32:04.808Z,30.60
2023-02-24T09:34:18.793Z,29.48
2023-02-24T09:36:30.929Z,31.98
2023-02-24T09:38:52.038Z,29.20
2023-02-24T09:41:18.464Z,27.45
2023-02-24T09:43:28.298Z,29.50
2023-02-24T09:45:36.310Z,25.13
2023-02-24T09:47:57.181Z,31.30
2023-02-24T09:50:16.242Z,24.13
2023-02-24T09:52:39.872Z,28.83
2023-02-24T09:55:12.548Z,29.83
2023-02-24T09:57:26.864Z,24.60
2023-02-24T10:00:01.473Z,25.67
2023-02-24T10:02:28.344Z,25.42
2023-02-24T10:05:07.379Z,21.85
2023-02-24T10:07:18.509Z,27.85
2023-02-24T10:09:34.708Z,22.50
2023-02-24T10:11:53.734Z,22.25
2023-02-24T10:14:06.421Z,31.20
2023-02-24T10:16:24.204Z,30.00
2023-02-24T10:18:36.072Z,38.03
2023-02-24T10:20:49.507Z,38.45
2023-02-24T10:23:02.542Z,38.15
2023-02-24T10:25:28.251Z,35.33
2023-02-24T10:27:44.447Z,36.45
2023-02-24T10:30:05.869Z,37.17
2023-02-24T10:32:31.904Z,41.92
2023-02-24T10:34:39.856Z,35.03
2023-02-24T10:36:51.270Z,39.05
2023-02-24T10:39:08.569Z,33.60
2023-02-24T10:41:17.880Z,40.30
2023-02-24T10:43:33.865Z,34.03
2023-02-24T10:45:45.443Z,36.55
2023-02-24T10:47:59.540Z,31.90
2023-02-24T10:50:12.819Z,38.95
2023-02-24T10:52:37.320Z,31.33
2023-02-24T10:55:05.369Z,30.65
2023-02-24T10:57:42.589Z,29.88
2023-02-24T11:00:13.533Z,32.55
2023-02-24T11:02:30.040Z,29.73
2023-02-24T11:05:04.694Z,30.38
2023-02-24T11:07:24.907Z,26.83
2023-02-24T11:09:44.030Z,25.23
2023-02-24T11:12:04.407Z,22.90
2023-02-24T11:14:32.316Z,23.20
2023-02-24T11:17:03.695Z,23.98
2023-02-24T11:19:14.356Z,17.58
2023-02-24T11:21:22.801Z,22.40
2023-02-24T11:23:36.364Z,24.95
2023-02-24T11:25:51.893Z,19.40
2023-02-24T11:28:00.741Z,20.08
2023-02-24T11:30:27.956Z,23.15
2023-02-24T11:32:49.831Z,19.73
2023-02-24T11:35:05.842Z,24.45
2023-02-24T11:37:24.511Z,20.85
2023-02-24T11:39:47.503Z,26.25
2023-02-24T11:42:01.655Z,22.73
2023-02-24T11:44:28.822Z,22.23
2023-02-24T11:46:41.870Z,23.73
2023-02-24T11:48:57.093Z,27.00
2023-02-24T11:51:08.087Z,30.48
2023-02-24T11:53:28.246Z,27.23
2023-02-24T11:55:42.599Z,29.58
2023-02-24T11:57:57.425Z,34.50
2023-02-24T12:00:13.487Z,29.80
2023-02-24T12:02:30.315Z,35.78
2023-02-24T12:04:43.256Z,37.75
2023-02-24T12:06:57.071Z,31.73
2023-02-24T12:09:15.716Z,33.08
2023-02-24T12:11:35.729Z,29.67
2023-02-24T12:13:53.219Z,34.45
2023-02-24T12:16:08.024Z,28.30
2023-02-24T12:18:23.350Z,33.22
2023-02-24T12:20:35.912Z,30.45
2023-02-24T12:22:50.714Z,31.27
2023-02-24T12:24:58.866Z,29.20
2023-02-24T12:27:16.429Z,27.95
2023-02-24T12:29:42.702Z,28.02
2023-02-24T12:32:00.688Z,24.15
2023-02-24T12:34:15.736Z,34.65
2023-02-24T12:36:38.334Z,25.52
2023-02-24T12:38:56.077Z,27.50
2023-02-24T12:41:20.258Z,28.05
2023-02-24T12:43:38.311Z,31.58
2023-02-24T12:45:55.117Z,23.25
2023-02-24T12:48:12.046Z,25.85
2023-02-24T12:50:30.930Z,25.67
2023-02-24T12:52:50.332Z,23.27
2023-02-24T12:55:09.103Z,25.70
2023-02-24T12:57:26.651Z,27.00
2023-02-24T12:59:41.343Z,24.52
2023-02-24T13:02:01.431Z,24.77
2023-02-24T13:04:32.424Z,25.13
2023-02-24T13:06:50.969Z,24.00
2023-02-24T13:09:06.290Z,21.20
2023-02-24T13:11:25.659Z,18.00
2023-02-24T13:13:40.274Z,16.27
2023-02-24T13:15:56.751Z,18.25
2023-02-24T13:18:07.408Z,19.92
2023-02-24T13:20:17.354Z,17.23
2023-02-24T13:22:32.887Z,15.55
2023-02-24T13:24:44.226Z,17.27
2023-02-24T13:26:52.333Z,15.52
2023-02-24T13:29:04.073Z,18.58
2023-02-24T13:31:14.797Z,15.90
2023-02-24T13:33:33.802Z,17.13
2023-02-24T13:35:41.551Z,16.52
2023-02-24T13:37:51.687Z,17.60
2023-02-24T13:39:59.634Z,16.92
2023-02-24T13:42:09.518Z,15.82
2023-02-24T13:44:30.685Z,15.32
2023-02-24T13:46:57.552Z,17.65
2023-02-24T13:49:39.944Z,13.00
2023-02-24T13:52:03.386Z,17.60
2023-02-24T13:54:26.488Z,16.80
2023-02-24T13:56:42.290Z,12.45
2023-02-24T13:59:10.663Z,16.38
2023-02-24T14:01:21.120Z,18.92
2023-02-24T14:03:31.702Z,18.27
2023-02-24T14:05:45.758Z,25.52
2023-02-24T14:07:56.359Z,22.40
2023-02-24T14:10:07.535Z,19.80
2023-02-24T14:12:43.620Z,15.50
2023-02-24T14:14:53.712Z,22.00
2023-02-24T14:17:04.640Z,18.88
2023-02-24T14:19:17.909Z,17.45
2023-02-24T14:21:30.523Z,16.60
2023-02-24T14:23:38.696Z,17.52
2023-02-24T14:25:46.887Z,20.85
2023-02-24T14:27:57.817Z,18.77
2023-02-24T14:30:05.953Z,21.45
2023-02-24T14:32:22.895Z,18.52
2023-02-24T14:34:34.721Z,23.67
2023-02-24T14:36:49.323Z,22.67
2023-02-24T14:39:08.103Z,21.55
2023-02-24T14:41:23.800Z,26.77
2023-02-24T14:43:32.512Z,24.45
2023-02-24T14:45:51.724Z,29.98
2023-02-24T14:48:00.087Z,29.92
2023-02-24T14:50:08.984Z,31.10
2023-02-24T14:52:30.797Z,27.83
2023-02-24T14:54:46.572Z,30.35
2023-02-24T14:56:54.794Z,31.48
2023-02-24T14:59:06.463Z,27.00
2023-02-24T15:01:24.261Z,38.35
2023-02-24T15:03:35.761Z,30.20
2023-02-24T15:05:46.399Z,29.67
2023-02-24T15:07:58.593Z,26.25
2023-02-24T15:10:08.504Z,27.65
2023-02-24T15:12:24.966Z,31.67
2023-02-24T15:14:34.847Z,25.40
2023-02-24T15:16:47.039Z,23.95
2023-02-24T15:18:56.208Z,25.35
2023-02-24T15:21:05.189Z,28.13
2023-02-24T15:23:31.841Z,27.52
2023-02-24T15:25:47.753Z,26.10
2023-02-24T15:27:58.453Z,22.83
2023-02-24T15:30:09.788Z,24.38
2023-02-24T15:32:20.766Z,28.48
2023-02-24T15:34:31.720Z,26.65
2023-02-24T15:36:39.893Z,27.05
2023-02-24T15:38:54.816Z,27.23
2023-02-24T15:41:05.202Z,24.77
2023-02-24T15:43:14.231Z,25.50
2023-02-24T15:45:28.953Z,21.08
2023-02-24T15:47:45.382Z,24.25
2023-02-24T15:49:53.246Z,23.13
2023-02-24T15:52:04.325Z,26.92
2023-02-24T15:54:19.576Z,25.02
2023-02-24T15:56:27.473Z,30.55
2023-02-24T15:58:43.254Z,21.90
2023-02-24T16:00:54.472Z,27.10
2023-02-24T16:03:02.693Z,20.23
2023-02-24T16:05:12.781Z,24.75
2023-02-24T16:07:24.416Z,23.42
2023-02-24T16:09:39.639Z,21.42
2023-02-24T16:11:50.424Z,25.05
2023-02-24T16:14:00.647Z,24.77
2023-02-24T16:16:09.411Z,26.95
2023-02-24T16:18:22.528Z,23.00
2023-02-24T16:20:33.678Z,21.63
2023-02-24T16:22:41.722Z,23.95
2023-02-24T16:24:52.728Z,20.88
2023-02-24T16:27:01.057Z,24.50
2023-02-24T16:29:11.761Z,28.10
2023-02-24T16:31:20.298Z,26.23
2023-02-24T16:33:29.185Z,27.88
2023-02-24T16:35:38.968Z,27.48
2023-02-24T16:37:49.336Z,24.25
2023-02-24T16:40:01.552Z,24.00
2023-02-24T16:42:10.190Z,17.85
2023-02-24T16:44:19.587Z,20.10
2023-02-24T16:46:41.454Z,23.08
2023-02-24T16:48:51.222Z,15.10
2023-02-24T16:50:59.284Z,17.00
2023-02-24T16:53:07.388Z,19.70
2023-02-24T16:55:18.432Z,19.13
2023-02-24T16:57:26.200Z,17.75
2023-02-24T16:59:34.574Z,17.98
2023-02-24T17:01:42.848Z,16.50
2023-02-24T17:03:53.137Z,16.08
2023-02-24T17:06:01.198Z,19.15
2023-02-24T17:08:09.237Z,22.75
2023-02-24T17:10:20.931Z,17.50
2023-02-24T17:12:28.804Z,18.25
2023-02-24T17:14:36.928Z,25.80
2023-02-24T17:16:44.912Z,18.17
2023-02-24T17:18:53.070Z,17.73
2023-02-24T17:21:01.057Z,17.15
2023-02-24T17:23:09.300Z,17.58
2023-02-24T17:25:23.789Z,15.48
2023-02-24T17:27:31.838Z,22.35
2023-02-24T17:29:39.718Z,16.85
2023-02-24T17:31:47.805Z,22.67
2023-02-24T17:33:55.698Z,23.17
2023-02-24T17:36:03.978Z,21.98
2023-02-24T17:38:14.551Z,21.92
2023-02-24T17:40:25.870Z,23.95
2023-02-24T17:42:33.700Z,17.15
2023-02-24T17:44:41.611Z,22.42
2023-02-24T17:46:49.619Z,19.27
2023-02-24T17:48:57.667Z,20.80
2023-02-24T17:51:05.561Z,18.35
2023-02-24T17:53:14.105Z,19.65
2023-02-24T17:55:24.693Z,18.83
2023-02-24T17:57:34.351Z,22.60
2023-02-24T17:59:46.103Z,14.55
2023-02-24T18:01:54.038Z,15.77
2023-02-24T18:04:02.273Z,17.95
2023-02-24T18:06:13.357Z,13.43
2023-02-24T18:08:21.523Z,10.25
2023-02-24T18:10:32.298Z,11.07
2023-02-24T18:12:40.392Z,19.38
2023-02-24T18:14:59.109Z,17.67
2023-02-24T18:17:14.484Z,23.27
2023-02-24T18:19:22.459Z,16.13
2023-02-24T18:21:30.517Z,25.85
2023-02-24T18:23:40.989Z,15.70
2023-02-24T18:25:51.473Z,9.25
2023-02-24T18:27:59.801Z,9.85
2023-02-24T18:30:10.269Z,8.63
2023-02-24T18:32:18.726Z,9.63
2023-02-24T18:34:26.979Z,8.27
2023-02-24T18:36:35.095Z,6.00
2023-02-24T18:38:43.272Z,12.48
2023-02-24T18:41:00.694Z,6.20
2023-02-24T18:43:08.895Z,6.35
2023-02-24T18:45:17.150Z,4.70
2023-02-24T18:47:25.227Z,4.75
2023-02-24T18:49:33.722Z,6.35
2023-02-24T18:51:42.672Z,8.35
2023-02-24T18:53:52.736Z,4.47
2023-02-24T18:56:11.619Z,3.45
2023-02-24T18:58:19.972Z,4.95
2023-02-24T19:00:29.396Z,5.10
2023-02-24T19:02:39.177Z,3.10
2023-02-24T19:04:48.472Z,4.50
2023-02-24T19:06:56.689Z,5.38
2023-02-24T19:09:09.935Z,3.42
2023-02-24T19:11:22.690Z,3.08
2023-02-24T19:13:30.867Z,3.45
2023-02-24T19:15:40.189Z,4.53
2023-02-24T19:17:50.319Z,3.50
2023-02-24T19:19:58.818Z,3.05
2023-02-24T19:22:09.822Z,4.07
2023-02-24T19:24:18.591Z,5.03
2023-02-24T19:26:30.842Z,4.18
2023-02-24T19:28:39.311Z,7.43
2023-02-24T19:30:48.075Z,6.70
2023-02-24T19:32:56.203Z,9.68
2023-02-24T19:35:04.538Z,12.48
2023-02-24T19:37:12.916Z,9.93
2023-02-24T19:39:22.681Z,12.55
2023-02-24T19:41:34.379Z,26.10
2023-02-24T19:43:44.846Z,15.65
2023-02-24T19:45:55.867Z,16.70
2023-02-24T19:48:06.672Z,17.42
2023-02-24T19:50:18.578Z,20.13
2023-02-24T19:52:27.189Z,12.73
2023-02-24T19:54:46.756Z,19.00
2023-02-24T19:57:00.592Z,18.17
2023-02-24T19:59:10.481Z,18.25
2023-02-24T20:01:18.590Z,18.35
2023-02-24T20:03:28.399Z,19.70
2023-02-24T20:05:38.992Z,19.65
2023-02-24T20:07:47.148Z,19.27
2023-02-24T20:09:55.153Z,21.27
2023-02-24T20:12:05.938Z,18.00
2023-02-24T20:14:15.451Z,19.52
2023-02-24T20:16:26.244Z,20.20
2023-02-24T20:18:34.523Z,19.27
2023-02-24T20:20:42.542Z,21.42
2023-02-24T20:22:50.560Z,19.00
2023-02-24T20:25:00.640Z,21.95
2023-02-24T20:27:12.930Z,16.70
2023-02-24T20:29:24.887Z,20.60
2023-02-24T20:31:33.029Z,22.88
2023-02-24T20:33:43.180Z,18.23
2023-02-24T20:35:51.543Z,18.75
2023-02-24T20:37:59.446Z,21.85
2023-02-24T20:40:09.069Z,22.00
2023-02-24T20:42:19.564Z,21.73
2023-02-24T20:44:27.593Z,20.80
2023-02-24T20:46:38.419Z,19.13
2023-02-24T20:48:46.953Z,25.15
2023-02-24T20:50:55.421Z,18.80
2023-02-24T20:53:04.383Z,21.30
2023-02-24T20:55:13.585Z,22.98
2023-02-24T20:57:25.175Z,18.92
2023-02-24T20:59:33.069Z,20.85
2023-02-24T21:01:42.156Z,20.50
2023-02-24T21:03:50.552Z,18.80
2023-02-24T21:06:09.173Z,19.15
2023-02-24T21:08:17.855Z,17.88
2023-02-24T21:10:26.081Z,21.65
2023-02-24T21:12:36.881Z,21.73
2023-02-24T21:14:45.521Z,21.92
2023-02-24T21:16:53.529Z,20.17
2023-02-24T21:19:01.443Z,20.95
2023-02-24T21:21:10.425Z,20.10
2023-02-24T21:23:18.744Z,16.38
2023-02-24T21:25:28.214Z,24.20
2023-02-24T21:27:39.715Z,17.95
2023-02-24T21:29:49.312Z,12.75
2023-02-24T21:31:58.174Z,7.90
2023-02-24T21:34:06.661Z,7.45
2023-02-24T21:36:17.166Z,7.80
2023-02-24T21:38:25.116Z,9.70
2023-02-24T21:40:33.735Z,13.27
2023-02-24T21:42:47.099Z,9.70
2023-02-24T21:44:59.775Z,7.88
2023-02-24T21:47:08.538Z,8.73
2023-02-24T21:49:18.330Z,6.28
2023-02-24T21:51:27.973Z,4.38
2023-02-24T21:53:39.641Z,4.85
2023-02-24T21:55:47.628Z,3.72
2023-02-24T21:57:58.241Z,4.43
2023-02-24T22:00:12.545Z,3.95
2023-02-24T22:02:22.083Z,4.03
2023-02-24T22:04:30.102Z,5.43
2023-02-24T22:06:41.122Z,6.30
2023-02-24T22:08:49.238Z,4.97
2023-02-24T22:11:01.739Z,4.40
2023-02-24T22:13:12.209Z,4.85
2023-02-24T22:15:20.599Z,8.30
2023-02-24T22:17:29.389Z,8.88
2023-02-24T22:19:37.443Z,5.07
2023-02-24T22:21:45.790Z,6.47
2023-02-24T22:23:55.376Z,7.43
2023-02-24T22:26:06.192Z,7.93
2023-02-24T22:28:17.066Z,7.65
2023-02-24T22:30:25.731Z,7.13
2023-02-24T22:32:34.072Z,7.30
2023-02-24T22:34:42.286Z,9.15
2023-02-24T22:36:53.810Z,10.90
2023-02-24T22:39:14.975Z,8.95
2023-02-24T22:41:25.611Z,7.07
2023-02-24T22:43:36.217Z,7.50
2023-02-24T22:45:43.973Z,7.95
2023-02-24T22:47:51.980Z,7.30
2023-02-24T22:50:00.011Z,6.18
2023-02-24T22:52:07.911Z,6.32
2023-02-24T22:54:15.767Z,8.43
2023-02-24T22:56:26.462Z,8.25
2023-02-24T22:58:37.693Z,10.40
2023-02-24T23:00:47.195Z,8.05
2023-02-24T23:02:56.550Z,11.90
2023-02-24T23:05:04.615Z,8.82
2023-02-24T23:07:14.301Z,8.10
2023-02-24T23:09:22.561Z,5.65
2023-02-24T23:11:32.739Z,6.88
2023-02-24T23:13:45.081Z,5.18
2023-02-24T23:15:53.435Z,7.10
2023-02-24T23:18:02.663Z,10.07
2023-02-24T23:20:14.479Z,6.28
2023-02-24T23:22:22.482Z,7.15
2023-02-24T23:24:31.130Z,8.32
2023-02-24T23:26:40.689Z,9.30
2023-02-24T23:28:51.171Z,8.90
2023-02-24T23:30:59.250Z,6.68
2023-02-24T23:33:08.689Z,7.30
2023-02-24T23:35:17.114Z,9.50
2023-02-24T23:37:25.000Z,5.90
2023-02-24T23:39:33.078Z,7.22
2023-02-24T23:41:41.594Z,8.60
2023-02-24T23:43:52.211Z,8.23
2023-02-24T23:46:00.112Z,10.63
2023-02-24T23:48:08.380Z,8.13
2023-02-24T23:50:16.399Z,8.57
2023-02-24T23:52:24.254Z,7.03
2023-02-24T23:54:43.808Z,6.55
2023-02-24T23:56:52.286Z,8.10
2023-02-24T23:59:02.964Z,6.95
